Time;durP1;ratioP1;P1;durP2;ratioP2;P2;SDS_P1;SDS_P2;PMS_P1;PMS_P2;Temp;Humidity;BMP_temperature;BMP_pressure;BME280_temperature;BME280_humidity;BME280_pressure;Samples;Min_cycle;Max_cycle;Signal;HPM_P1;HPM_P2
2021/03/11 00:00:14;;;;;;;3.20;2.22;;;20.50;39.10;;;;;;5082862;28;20483;-39
2021/03/11 00:02:41;;;;;;;3.15;1.77;;;20.50;39.10;;;;;;5082823;28;20104;-39
2021/03/11 00:05:10;;;;;;;5.00;2.35;;;20.50;39.10;;;;;;5073865;28;20024;-39
2021/03/11 00:07:36;;;;;;;3.10;2.13;;;20.50;39.00;;;;;;5087601;28;20520;-39
2021/03/11 00:10:03;;;;;;;4.32;2.00;;;20.50;39.10;;;;;;5090645;28;20053;-39
2021/03/11 00:12:29;;;;;;;3.17;1.85;;;20.60;39.10;;;;;;5092712;28;20514;-40
2021/03/11 00:14:55;;;;;;;4.03;2.00;;;20.60;39.10;;;;;;5092780;28;20047;-39
2021/03/11 00:17:21;;;;;;;4.60;1.80;;;20.50;39.10;;;;;;5076726;28;20077;-44
2021/03/11 00:19:47;;;;;;;4.53;1.83;;;20.50;39.00;;;;;;5084840;28;20116;-39
2021/03/11 00:22:12;;;;;;;5.68;2.50;;;20.50;39.00;;;;;;5092749;28;20555;-39
2021/03/11 00:24:38;;;;;;;2.92;1.77;;;20.50;39.00;;;;;;5093479;28;20024;-40
2021/03/11 00:27:04;;;;;;;4.10;2.00;;;20.50;39.10;;;;;;5078208;28;20082;-39
2021/03/11 00:29:30;;;;;;;4.03;2.00;;;20.60;39.10;;;;;;5073506;28;20470;-39
2021/03/11 00:31:56;;;;;;;3.70;2.30;;;20.50;39.00;;;;;;5074721;28;20016;-39
2021/03/11 00:34:22;;;;;;;2.80;1.85;;;20.50;39.00;;;;;;5075034;28;20486;-47
2021/03/11 00:36:48;;;;;;;3.63;2.05;;;20.50;39.00;;;;;;5073658;28;20024;-39
2021/03/11 00:39:15;;;;;;;3.65;2.17;;;20.60;39.10;;;;;;5088759;28;20039;-41
2021/03/11 00:41:41;;;;;;;2.60;1.95;;;20.50;39.00;;;;;;5074766;28;20469;-39
2021/03/11 00:44:06;;;;;;;2.67;1.73;;;20.60;39.10;;;;;;5082506;28;20035;-39
2021/03/11 00:46:32;;;;;;;3.38;1.98;;;20.50;39.00;;;;;;5073146;28;20107;-39
2021/03/11 00:48:58;;;;;;;3.90;2.10;;;20.60;39.10;;;;;;5075196;28;20032;-39
2021/03/11 00:51:24;;;;;;;2.65;1.90;;;20.50;39.00;;;;;;5089641;28;20020;-43
2021/03/11 00:53:50;;;;;;;3.70;2.22;;;20.60;39.00;;;;;;5076611;28;20037;-40
2021/03/11 00:56:15;;;;;;;3.63;1.85;;;20.50;39.10;;;;;;5076470;28;20062;-39
2021/03/11 00:58:41;;;;;;;3.78;2.05;;;20.50;39.00;;;;;;5092279;28;20579;-41
2021/03/11 01:01:07;;;;;;;2.15;1.65;;;20.60;39.10;;;;;;5082734;28;20054;-39
2021/03/11 01:03:32;;;;;;;2.83;2.00;;;20.50;39.00;;;;;;5083964;28;20020;-40
2021/03/11 01:05:58;;;;;;;4.45;2.25;;;20.60;39.00;;;;;;5089541;28;20032;-40
2021/03/11 01:08:24;;;;;;;3.80;2.40;;;20.50;39.00;;;;;;5089746;28;20074;-42
2021/03/11 01:10:50;;;;;;;3.30;1.83;;;20.60;39.00;;;;;;5092974;28;20035;-39
2021/03/11 01:13:15;;;;;;;3.60;2.00;;;20.60;39.00;;;;;;5082832;28;20420;-39
2021/03/11 01:15:42;;;;;;;3.63;1.70;;;20.60;39.10;;;;;;5085339;28;20024;-39
2021/03/11 01:18:10;;;;;;;4.20;2.33;;;20.60;39.00;;;;;;5091312;28;20025;-39
2021/03/11 01:20:36;;;;;;;5.78;2.80;;;20.60;39.00;;;;;;5091258;28;20039;-39
2021/03/11 01:23:02;;;;;;;2.72;1.73;;;20.50;39.00;;;;;;5092101;28;20024;-39
2021/03/11 01:25:28;;;;;;;3.40;1.98;;;20.60;39.00;;;;;;5091178;28;20035;-39
2021/03/11 01:27:53;;;;;;;3.67;1.88;;;20.60;39.00;;;;;;5077275;28;20040;-39
2021/03/11 01:30:19;;;;;;;2.67;1.95;;;20.60;39.10;;;;;;5073051;28;20485;-41
2021/03/11 01:32:45;;;;;;;3.78;2.17;;;20.60;39.00;;;;;;5078026;28;20059;-39
2021/03/11 01:35:12;;;;;;;3.75;2.10;;;20.60;39.00;;;;;;5090719;28;20120;-40
2021/03/11 01:37:37;;;;;;;4.55;1.90;;;20.60;39.00;;;;;;5080309;28;20029;-39
2021/03/11 01:40:04;;;;;;;2.40;1.67;;;20.60;39.00;;;;;;5082726;28;20090;-40
2021/03/11 01:42:30;;;;;;;3.28;1.90;;;20.60;39.00;;;;;;5078505;28;20024;-39
2021/03/11 01:44:57;;;;;;;4.57;2.05;;;20.60;39.00;;;;;;5082705;28;20102;-41
2021/03/11 01:47:23;;;;;;;4.00;2.10;;;20.60;39.00;;;;;;5072056;28;20143;-48
2021/03/11 01:49:48;;;;;;;2.53;1.63;;;20.60;39.00;;;;;;5082443;28;20501;-40
2021/03/11 01:52:14;;;;;;;2.25;1.52;;;20.60;39.00;;;;;;5079781;28;20021;-39
2021/03/11 01:54:41;;;;;;;2.97;2.00;;;20.60;39.00;;;;;;5072225;28;20027;-42
2021/03/11 01:57:08;;;;;;;3.28;1.75;;;20.60;39.00;;;;;;5073912;28;20460;-39
2021/03/11 01:59:35;;;;;;;2.72;1.42;;;20.60;39.00;;;;;;5086969;28;20074;-40
2021/03/11 02:02:01;;;;;;;3.45;2.03;;;20.60;39.10;;;;;;5071841;28;20028;-39
2021/03/11 02:04:27;;;;;;;3.72;1.83;;;20.60;39.00;;;;;;5077419;28;20043;-40
2021/03/11 02:06:53;;;;;;;3.53;1.60;;;20.60;39.00;;;;;;5077720;28;20103;-39
2021/03/11 02:09:19;;;;;;;4.13;2.33;;;20.60;39.10;;;;;;5074363;28;20032;-41
2021/03/11 02:12:05;;;;;;;3.25;1.55;;;20.60;39.10;;;;;;5090901;28;20032;-38
2021/03/11 02:14:47;;;;;;;3.33;1.40;;;20.60;39.00;;;;;;5049348;28;20051;-39
2021/03/11 02:17:14;;;;;;;5.85;1.60;;;20.60;39.10;;;;;;5084794;28;20044;-39
2021/03/11 02:20:19;;;;;;;2.70;1.58;;;20.60;39.00;;;;;;5071591;28;20036;-39
2021/03/11 02:23:03;;;;;;;3.17;1.15;;;20.60;39.00;;;;;;5072231;28;20592;-40
2021/03/11 02:25:42;;;;;;;3.38;1.65;;;20.60;39.10;;;;;;5076945;28;20024;-39
2021/03/11 02:28:22;;;;;;;7.75;1.75;;;20.60;39.10;;;;;;5081346;28;20393;-39
2021/03/11 02:30:48;;;;;;;1.80;1.23;;;20.60;39.10;;;;;;5071577;28;20032;-39
2021/03/11 02:33:15;;;;;;;2.33;1.40;;;20.60;39.10;;;;;;5073336;28;20101;-39
2021/03/11 02:35:42;;;;;;;2.42;1.50;;;20.60;39.10;;;;;;5069273;28;20040;-39
2021/03/11 02:38:11;;;;;;;2.20;1.55;;;20.60;39.10;;;;;;5072008;28;20046;-38
2021/03/11 02:40:38;;;;;;;2.58;1.30;;;20.60;39.20;;;;;;5072971;28;20029;-38
2021/03/11 02:43:10;;;;;;;2.55;1.48;;;20.60;39.20;;;;;;5078610;28;20032;-38
2021/03/11 02:45:37;;;;;;;2.80;1.77;;;20.60;39.20;;;;;;5082140;28;20108;-44
2021/03/11 02:48:06;;;;;;;1.92;1.35;;;20.60;39.10;;;;;;5091739;28;20032;-38
2021/03/11 02:50:34;;;;;;;2.38;1.60;;;20.60;39.20;;;;;;5090680;28;20024;-40
2021/03/11 02:53:01;;;;;;;3.28;1.40;;;20.60;39.20;;;;;;5083570;28;20051;-38
2021/03/11 02:55:29;;;;;;;1.92;1.27;;;20.60;39.20;;;;;;5090993;28;20055;-46
2021/03/11 02:57:57;;;;;;;1.90;1.48;;;20.60;39.20;;;;;;5089330;28;20059;-37
2021/03/11 03:00:24;;;;;;;1.80;1.25;;;20.60;39.20;;;;;;5076535;28;20024;-38
2021/03/11 03:02:52;;;;;;;3.05;1.13;;;20.60;39.20;;;;;;5090557;28;20020;-44
2021/03/11 03:05:20;;;;;;;2.20;1.65;;;20.60;39.20;;;;;;5090523;28;20028;-38
2021/03/11 03:07:48;;;;;;;1.83;1.30;;;20.60;39.20;;;;;;5090818;28;20020;-38
2021/03/11 03:10:27;;;;;;;4.80;1.67;;;20.60;39.20;;;;;;5089028;28;20078;-38
2021/03/11 03:13:00;;;;;;;2.85;1.63;;;20.60;39.20;;;;;;5085959;28;20039;-38
2021/03/11 03:15:26;;;;;;;2.55;1.45;;;20.60;39.20;;;;;;5089256;28;20028;-47
2021/03/11 03:17:52;;;;;;;2.47;1.55;;;20.60;39.20;;;;;;5083106;28;20469;-39
2021/03/11 03:20:20;;;;;;;1.73;1.60;;;20.60;39.10;;;;;;5071805;28;20040;-38
2021/03/11 03:22:48;;;;;;;7.30;1.70;;;20.60;39.20;;;;;;5089363;28;20051;-38
2021/03/11 03:25:14;;;;;;;3.67;1.50;;;20.60;39.20;;;;;;5091327;28;20478;-38
2021/03/11 03:27:41;;;;;;;4.35;1.95;;;20.60;39.20;;;;;;5088573;28;20059;-39
2021/03/11 03:30:12;;;;;;;3.30;1.33;;;20.60;39.10;;;;;;5090671;28;20032;-38
2021/03/11 03:32:38;;;;;;;2.13;1.25;;;20.60;39.20;;;;;;5089356;28;20028;-38
2021/03/11 03:35:07;;;;;;;2.90;1.98;;;20.60;39.20;;;;;;5088248;28;20185;-38
2021/03/11 03:37:34;;;;;;;2.10;1.48;;;20.60;39.20;;;;;;5090456;28;20028;-38
2021/03/11 03:40:06;;;;;;;1.85;1.45;;;20.60;39.20;;;;;;5090038;28;20040;-38
2021/03/11 03:42:36;;;;;;;2.70;1.70;;;20.60;39.30;;;;;;5070708;28;20035;-38
2021/03/11 03:45:04;;;;;;;3.05;1.30;;;20.60;39.30;;;;;;5082401;28;20036;-38
2021/03/11 03:47:30;;;;;;;1.80;1.33;;;20.60;39.30;;;;;;5083758;28;20028;-47
2021/03/11 03:49:57;;;;;;;2.55;1.48;;;20.60;39.30;;;;;;5094869;28;20028;-38
2021/03/11 03:52:26;;;;;;;2.38;1.27;;;20.60;39.30;;;;;;5093030;28;20085;-38
2021/03/11 03:54:53;;;;;;;2.22;1.02;;;20.60;39.30;;;;;;5074968;28;20025;-37
2021/03/11 03:57:21;;;;;;;2.53;1.35;;;20.60;39.30;;;;;;5075041;28;20106;-38
2021/03/11 03:59:50;;;;;;;4.15;1.40;;;20.70;39.30;;;;;;5074665;28;20091;-38
2021/03/11 04:02:17;;;;;;;3.08;1.30;;;20.60;39.30;;;;;;5088407;28;20093;-39
2021/03/11 04:04:47;;;;;;;2.58;1.25;;;20.60;39.30;;;;;;5093948;28;20036;-42
2021/03/11 04:07:17;;;;;;;2.13;1.40;;;20.60;40.00;;;;;;5075071;28;20025;-38
2021/03/11 04:09:44;;;;;;;3.80;1.33;;;20.60;39.40;;;;;;5079370;28;20020;-37
2021/03/11 04:12:10;;;;;;;2.83;1.40;;;20.60;39.40;;;;;;5078891;28;20443;-39
2021/03/11 04:14:40;;;;;;;1.65;1.33;;;20.60;39.40;;;;;;5073893;28;20436;-38
2021/03/11 04:17:06;;;;;;;2.17;1.27;;;20.60;39.40;;;;;;5076163;28;20028;-38
2021/03/11 04:19:35;;;;;;;1.38;1.17;;;20.60;39.40;;;;;;5088658;28;20024;-38
2021/03/11 04:22:03;;;;;;;3.13;1.60;;;20.60;39.40;;;;;;5092037;28;20103;-39
2021/03/11 04:24:29;;;;;;;1.88;1.15;;;20.60;39.40;;;;;;5087675;28;20016;-47
2021/03/11 04:26:59;;;;;;;3.13;1.27;;;20.60;39.40;;;;;;5092806;28;20467;-38
2021/03/11 04:29:25;;;;;;;2.47;1.25;;;20.60;39.40;;;;;;5090354;28;20078;-38
2021/03/11 04:31:52;;;;;;;1.85;1.52;;;20.60;39.40;;;;;;5073566;28;20504;-39
2021/03/11 04:34:18;;;;;;;2.00;1.25;;;20.60;39.40;;;;;;5074167;28;20477;-38
2021/03/11 04:36:44;;;;;;;1.88;1.15;;;20.60;39.40;;;;;;5086387;28;20024;-38
2021/03/11 04:39:10;;;;;;;1.23;1.00;;;20.70;39.50;;;;;;5093952;28;20047;-38
2021/03/11 04:41:35;;;;;;;2.22;1.17;;;20.60;39.50;;;;;;5090383;28;20069;-38
2021/03/11 04:44:02;;;;;;;1.65;1.10;;;20.60;39.50;;;;;;5079920;28;20062;-38
2021/03/11 04:46:29;;;;;;;2.20;0.93;;;20.60;39.60;;;;;;5076907;28;20032;-45
2021/03/11 04:48:59;;;;;;;1.30;1.08;;;20.60;39.60;;;;;;5085372;28;20069;-38
2021/03/11 04:51:25;;;;;;;3.33;1.45;;;20.60;39.50;;;;;;5093197;28;20050;-38
2021/03/11 04:53:53;;;;;;;1.85;1.13;;;20.60;39.50;;;;;;5084118;28;20550;-38
2021/03/11 04:56:20;;;;;;;1.60;1.05;;;20.60;39.60;;;;;;5093565;28;20115;-38
2021/03/11 04:58:48;;;;;;;2.17;1.10;;;20.60;39.60;;;;;;5090930;28;20060;-38
2021/03/11 05:01:19;;;;;;;2.72;1.20;;;20.60;39.60;;;;;;5082855;28;20046;-40
2021/03/11 05:03:46;;;;;;;1.60;1.13;;;20.60;39.60;;;;;;5092306;28;20104;-38
2021/03/11 05:06:13;;;;;;;1.45;1.10;;;20.60;39.60;;;;;;5075802;28;20041;-43
2021/03/11 05:08:40;;;;;;;1.50;1.30;;;20.60;39.60;;;;;;5072558;28;20409;-38
2021/03/11 05:11:05;;;;;;;2.13;1.00;;;20.70;39.70;;;;;;5074500;28;20024;-39
2021/03/11 05:13:31;;;;;;;2.38;1.48;;;20.60;39.70;;;;;;5083321;28;20067;-47
2021/03/11 05:15:57;;;;;;;2.22;1.08;;;20.70;39.70;;;;;;5089877;28;20469;-38
2021/03/11 05:18:23;;;;;;;1.27;0.90;;;20.60;39.70;;;;;;5081923;28;20099;-38
2021/03/11 05:20:49;;;;;;;1.80;0.90;;;20.70;39.80;;;;;;5081252;28;20123;-38
2021/03/11 05:23:14;;;;;;;1.27;0.95;;;20.60;39.70;;;;;;5079743;28;20028;-42
2021/03/11 05:25:40;;;;;;;1.90;1.00;;;20.60;39.80;;;;;;5079611;28;20369;-39
2021/03/11 05:28:06;;;;;;;1.58;1.10;;;20.60;39.80;;;;;;5090917;28;21298;-39
2021/03/11 05:30:32;;;;;;;1.95;0.90;;;20.60;39.80;;;;;;5082939;28;20020;-48
2021/03/11 05:32:58;;;;;;;2.17;1.45;;;20.70;39.90;;;;;;5080418;28;20428;-38
2021/03/11 05:35:23;;;;;;;2.17;1.10;;;20.60;39.80;;;;;;5080194;28;20527;-38
2021/03/11 05:37:49;;;;;;;2.78;1.15;;;20.60;39.80;;;;;;5079233;28;20043;-38
2021/03/11 05:40:15;;;;;;;1.27;0.90;;;20.70;39.90;;;;;;5084128;28;20024;-42
2021/03/11 05:42:45;;;;;;;3.25;1.10;;;20.60;39.80;;;;;;5081030;28;20020;-39
2021/03/11 05:45:10;;;;;;;2.75;1.50;;;20.70;39.90;;;;;;5082571;28;20032;-40
2021/03/11 05:47:36;;;;;;;2.45;1.35;;;20.70;39.90;;;;;;5084713;28;20107;-38
2021/03/11 05:50:07;;;;;;;2.00;0.93;;;20.60;39.90;;;;;;5084793;28;20052;-38
2021/03/11 05:52:33;;;;;;;2.45;1.27;;;20.70;39.90;;;;;;5080585;28;20021;-46
2021/03/11 05:55:00;;;;;;;3.03;0.90;;;20.70;39.90;;;;;;5083439;28;20052;-40
2021/03/11 05:57:25;;;;;;;1.52;0.80;;;20.70;40.00;;;;;;5081808;28;20142;-39
2021/03/11 05:59:57;;;;;;;1.52;1.13;;;20.70;40.00;;;;;;5078879;28;20096;-42
2021/03/11 06:02:24;;;;;;;1.67;0.93;;;20.70;40.00;;;;;;5080686;28;20107;-38
2021/03/11 06:04:53;;;;;;;1.50;1.02;;;20.70;40.00;;;;;;5079191;28;20579;-39
2021/03/11 06:07:20;;;;;;;4.80;1.05;;;20.70;40.00;;;;;;5084270;28;20433;-38
2021/03/11 06:09:47;;;;;;;3.53;0.98;;;20.70;40.00;;;;;;5078919;28;20024;-39
2021/03/11 06:12:14;;;;;;;2.30;1.20;;;20.70;40.70;;;;;;5084099;28;20032;-38
2021/03/11 06:14:42;;;;;;;1.25;0.90;;;20.70;40.00;;;;;;5084579;28;20094;-38
2021/03/11 06:17:08;;;;;;;3.00;1.17;;;20.70;40.10;;;;;;5084044;28;20028;-38
2021/03/11 06:19:34;;;;;;;1.13;0.90;;;20.70;40.10;;;;;;5081211;28;20062;-40
2021/03/11 06:22:03;;;;;;;3.63;1.00;;;20.70;40.10;;;;;;5072348;28;20503;-38
2021/03/11 06:24:29;;;;;;;1.30;0.82;;;20.70;40.00;;;;;;5072527;28;20029;-48
2021/03/11 06:26:55;;;;;;;1.95;0.80;;;20.70;40.10;;;;;;5079406;28;20078;-38
2021/03/11 06:29:41;;;;;;;1.75;1.02;;;20.70;40.10;;;;;;5079213;28;20462;-38
2021/03/11 06:32:08;;;;;;;2.05;0.95;;;20.70;40.10;;;;;;5079619;28;20119;-40
2021/03/11 06:34:42;;;;;;;5.03;1.20;;;20.70;40.20;;;;;;5082491;28;20025;-45
2021/03/11 06:37:07;;;;;;;2.67;0.82;;;20.60;40.10;;;;;;5082108;28;20028;-40
2021/03/11 06:39:35;;;;;;;1.65;0.90;;;20.60;40.10;;;;;;5084694;28;20073;-49
2021/03/11 06:42:01;;;;;;;1.13;0.90;;;20.70;40.20;;;;;;5079769;28;20028;-38
2021/03/11 06:44:37;;;;;;;3.47;1.08;;;20.70;40.20;;;;;;5083663;28;20035;-40
2021/03/11 06:47:15;;;;;;;4.15;1.25;;;20.70;40.30;;;;;;5080632;28;20024;-39
2021/03/11 06:50:01;;;;;;;3.17;0.90;;;20.70;40.40;;;;;;5080783;28;20028;-38
2021/03/11 06:52:27;;;;;;;1.33;1.23;;;20.70;40.40;;;;;;5085318;28;20050;-38
2021/03/11 06:55:00;;;;;;;2.42;1.23;;;20.70;40.60;;;;;;5071189;28;20499;-38
2021/03/11 06:57:26;;;;;;;3.78;1.15;;;20.70;40.80;;;;;;5082572;28;20056;-38
2021/03/11 06:59:52;;;;;;;2.72;1.00;;;20.70;40.90;;;;;;5079100;28;20020;-38
2021/03/11 07:02:23;;;;;;;4.20;1.25;;;20.70;41.60;;;;;;5071558;28;20021;-43
2021/03/11 07:04:49;;;;;;;3.75;1.17;;;20.70;41.20;;;;;;5074189;28;20035;-39
2021/03/11 07:07:19;;;;;;;11.43;1.52;;;20.70;41.40;;;;;;5089441;28;20377;-38
2021/03/11 07:09:47;;;;;;;11.57;1.65;;;20.80;42.10;;;;;;5079884;28;20381;-40
2021/03/11 07:12:13;;;;;;;8.80;1.33;;;20.80;42.50;;;;;;5071014;28;20025;-40
2021/03/11 07:14:39;;;;;;;7.03;1.83;;;20.80;42.40;;;;;;5085755;28;20024;-38
2021/03/11 07:17:25;;;;;;;6.22;1.40;;;20.80;42.40;;;;;;5085660;28;20024;-39
2021/03/11 07:20:06;;;;;;;6.60;1.30;;;20.80;42.60;;;;;;5076458;28;20036;-40
2021/03/11 07:22:33;;;;;;;10.82;1.92;;;20.80;42.60;;;;;;5072735;28;20048;-43
2021/03/11 07:24:58;;;;;;;6.25;1.73;;;20.80;42.60;;;;;;5072302;28;20025;-39
2021/03/11 07:27:24;;;;;;;9.15;1.75;;;20.80;42.50;;;;;;5071342;28;20044;-39
2021/03/11 07:30:04;;;;;;;8.35;1.40;;;20.70;42.60;;;;;;5070812;28;20900;-39
2021/03/11 07:32:33;;;;;;;10.98;2.88;;;20.70;42.60;;;;;;5071298;28;20071;-39
2021/03/11 07:34:59;;;;;;;7.65;1.63;;;20.70;42.00;;;;;;5071206;28;20028;-39
2021/03/11 07:37:26;;;;;;;12.70;1.90;;;20.50;40.30;;;;;;5072749;28;20036;-38
2021/03/11 07:39:56;;;;;;;9.73;1.50;;;20.10;40.40;;;;;;5082499;28;20048;-39
2021/03/11 07:42:22;;;;;;;4.15;1.42;;;19.70;39.60;;;;;;5082490;28;20024;-38
2021/03/11 07:44:48;;;;;;;5.80;1.27;;;19.60;39.60;;;;;;5069441;28;20050;-39
2021/03/11 07:47:14;;;;;;;3.67;1.10;;;19.70;39.60;;;;;;5081533;28;20464;-44
2021/03/11 07:49:42;;;;;;;3.92;0.90;;;19.70;39.40;;;;;;5077736;28;20492;-39
2021/03/11 07:52:08;;;;;;;2.13;0.80;;;19.70;39.10;;;;;;5090292;28;20473;-39
2021/03/11 07:54:35;;;;;;;2.70;1.10;;;19.70;39.20;;;;;;5075410;28;20024;-49
2021/03/11 07:57:01;;;;;;;3.03;1.20;;;19.80;39.00;;;;;;5078445;28;20028;-39
2021/03/11 07:59:27;;;;;;;3.55;1.20;;;19.70;38.90;;;;;;5090586;28;20124;-39
2021/03/11 08:01:56;;;;;;;3.50;1.25;;;19.70;39.00;;;;;;5073712;28;20702;-41
2021/03/11 08:04:26;;;;;;;4.13;1.00;;;19.60;39.00;;;;;;5078382;28;20434;-39
2021/03/11 08:06:51;;;;;;;4.88;0.98;;;19.60;38.90;;;;;;5061689;28;20043;-42
2021/03/11 08:09:36;;;;;;;2.53;0.93;;;19.70;39.00;;;;;;5078626;28;20037;-44
2021/03/11 08:12:34;;;;;;;1.95;0.88;;;19.70;39.00;;;;;;5089737;28;20039;-39
2021/03/11 08:15:27;;;;;;;2.00;0.82;;;19.80;38.90;;;;;;5080446;28;20461;-39
2021/03/11 08:17:54;;;;;;;2.15;0.90;;;19.70;38.70;;;;;;5066768;28;20044;-39
2021/03/11 08:20:20;;;;;;;2.25;1.10;;;19.70;38.80;;;;;;5085016;28;20032;-39
2021/03/11 08:22:52;;;;;;;3.05;0.82;;;19.70;38.80;;;;;;5076846;28;20099;-44
2021/03/11 08:25:32;;;;;;;;;;;19.80;38.80;;;;;;5085344;28;20145;-40
2021/03/11 08:27:59;;;;;;;4.78;0.80;;;19.60;38.70;;;;;;5081742;28;19916;-42
2021/03/11 08:30:37;;;;;;;3.83;1.30;;;19.60;39.00;;;;;;5090623;28;20046;-40
2021/03/11 08:33:03;;;;;;;2.67;0.95;;;19.60;38.90;;;;;;5090904;28;20084;-40
2021/03/11 08:35:29;;;;;;;2.67;0.90;;;19.60;38.70;;;;;;5078056;28;20023;-39
2021/03/11 08:37:56;;;;;;;1.48;0.98;;;19.70;38.80;;;;;;5092076;28;20039;-40
2021/03/11 08:40:36;;;;;;;1.63;0.70;;;19.70;38.90;;;;;;5084687;28;20071;-39
2021/03/11 08:43:03;;;;;;;2.25;1.13;;;19.60;38.70;;;;;;5073176;28;20028;-39
2021/03/11 08:45:51;;;;;;;1.52;0.77;;;19.60;38.90;;;;;;5082487;28;20031;-40
2021/03/11 08:48:22;;;;;;;3.33;1.08;;;19.70;39.00;;;;;;5080775;28;20104;-39
2021/03/11 08:50:53;;;;;;;2.83;0.90;;;19.70;38.80;;;;;;5082183;28;20107;-38
2021/03/11 08:53:38;;;;;;;2.05;0.82;;;19.70;39.00;;;;;;5075231;28;20037;-39
2021/03/11 08:56:22;;;;;;;2.17;1.33;;;19.70;38.90;;;;;;5085816;28;20056;-40
2021/03/11 08:58:57;;;;;;;1.40;0.70;;;19.70;39.00;;;;;;5082905;28;20443;-39
2021/03/11 09:01:45;;;;;;;1.55;0.80;;;19.60;39.10;;;;;;5077644;28;20032;-39
2021/03/11 09:04:20;;;;;;;3.30;0.90;;;19.70;39.30;;;;;;5077632;28;20032;-42
2021/03/11 09:07:05;;;;;;;1.40;0.80;;;19.60;39.40;;;;;;5080814;28;20112;-39
2021/03/11 09:09:38;;;;;;;2.25;0.80;;;19.60;39.50;;;;;;5092069;28;20052;-40
2021/03/11 09:12:07;;;;;;;1.95;0.90;;;19.60;39.50;;;;;;5084474;28;20111;-39
2021/03/11 09:14:34;;;;;;;2.28;1.02;;;19.60;39.60;;;;;;5068465;28;20036;-40
2021/03/11 09:17:11;;;;;;;8.30;1.00;;;19.70;39.80;;;;;;5085593;28;20036;-39
2021/03/11 09:19:40;;;;;;;1.75;0.88;;;19.70;39.80;;;;;;5081354;28;20033;-48
2021/03/11 09:22:37;;;;;;;2.60;0.90;;;19.70;39.80;;;;;;5078666;28;20028;-42
2021/03/11 09:25:04;;;;;;;3.80;0.60;;;19.70;39.70;;;;;;5057990;28;20391;-39
2021/03/11 09:27:32;;;;;;;1.25;0.70;;;19.70;39.80;;;;;;5073606;28;20071;-39
2021/03/11 09:29:59;;;;;;;2.08;1.00;;;19.60;40.00;;;;;;5082631;28;20134;-39
2021/03/11 09:32:33;;;;;;;2.45;0.90;;;19.40;39.80;;;;;;5085854;28;20462;-39
2021/03/11 09:35:05;;;;;;;1.75;0.70;;;19.60;40.10;;;;;;5079416;28;20043;-44
2021/03/11 09:37:58;;;;;;;3.95;0.57;;;19.70;40.10;;;;;;5072494;28;20039;-42
2021/03/11 09:40:42;;;;;;;1.90;0.70;;;19.90;40.20;;;;;;5077964;28;20028;-40
2021/03/11 09:43:11;;;;;;;13.15;1.42;;;20.00;40.40;;;;;;5079451;28;20374;-43
2021/03/11 09:45:53;;;;;;;15.15;2.45;;;20.10;40.50;;;;;;5079104;28;20487;-50
2021/03/11 09:48:22;;;;;;;4.50;1.30;;;20.20;40.30;;;;;;5076318;28;20055;-42
2021/03/11 09:51:19;;;;;;;5.70;1.02;;;20.30;40.30;;;;;;5073955;28;20028;-40
2021/03/11 09:53:47;;;;;;;6.07;1.50;;;20.30;40.30;;;;;;5065717;28;20076;-40
2021/03/11 09:56:17;;;;;;;5.63;1.00;;;20.40;40.30;;;;;;5073253;28;20031;-40
2021/03/11 09:58:52;;;;;;;8.82;1.38;;;20.40;40.30;;;;;;5077819;28;20063;-42
2021/03/11 10:01:26;;;;;;;13.73;1.45;;;20.40;40.30;;;;;;5079865;28;20040;-40
2021/03/11 10:03:53;;;;;;;6.85;1.20;;;20.40;40.30;;;;;;5073299;28;20028;-45
2021/03/11 10:06:20;;;;;;;5.38;0.90;;;20.50;40.40;;;;;;5074484;28;20042;-40
2021/03/11 10:08:46;;;;;;;4.07;1.35;;;20.50;40.40;;;;;;5078473;28;20081;-38
2021/03/11 10:11:15;;;;;;;5.32;1.00;;;20.50;40.40;;;;;;5075178;28;20025;-46
2021/03/11 10:13:53;;;;;;;3.08;0.80;;;20.50;40.50;;;;;;5077833;28;20036;-40
2021/03/11 10:16:31;;;;;;;5.65;1.00;;;20.50;40.50;;;;;;5074323;28;20500;-41
2021/03/11 10:19:12;;;;;;;7.60;0.80;;;20.50;40.50;;;;;;5083256;28;20035;-40
2021/03/11 10:21:57;;;;;;;3.40;0.70;;;20.50;40.50;;;;;;5079196;28;20085;-49
2021/03/11 10:24:29;;;;;;;6.03;1.02;;;20.50;40.50;;;;;;5084409;28;20383;-43
2021/03/11 10:26:55;;;;;;;2.65;0.70;;;20.50;40.60;;;;;;5072643;28;20029;-40
2021/03/11 10:29:25;;;;;;;2.45;0.63;;;20.60;40.60;;;;;;5085259;28;20389;-42
2021/03/11 10:32:05;;;;;;;3.10;0.68;;;20.60;40.70;;;;;;5086388;28;20058;-40
2021/03/11 10:34:43;;;;;;;2.70;0.70;;;20.60;40.70;;;;;;5083613;28;20048;-38
2021/03/11 10:37:13;;;;;;;3.13;0.93;;;20.60;40.70;;;;;;5074216;28;20036;-43
2021/03/11 10:39:51;;;;;;;3.13;1.00;;;20.60;40.80;;;;;;5079325;28;20032;-42
2021/03/11 10:42:16;;;;;;;2.55;0.68;;;20.60;40.80;;;;;;5087061;28;20036;-40
2021/03/11 10:44:58;;;;;;;2.20;0.77;;;20.60;40.80;;;;;;5079600;28;20102;-39
2021/03/11 10:47:24;;;;;;;2.95;0.70;;;20.60;40.90;;;;;;5091550;28;20024;-39
2021/03/11 10:49:50;;;;;;;2.53;0.70;;;20.60;41.00;;;;;;5078622;28;20024;-46
2021/03/11 10:52:19;;;;;;;5.15;1.70;;;20.70;41.00;;;;;;5071923;28;20082;-39
2021/03/11 10:54:46;;;;;;;4.88;1.25;;;20.70;41.10;;;;;;5080776;28;20099;-38
2021/03/11 10:57:17;;;;;;;2.75;0.68;;;20.70;41.80;;;;;;5076865;28;20107;-39
2021/03/11 10:59:50;;;;;;;2.17;0.67;;;20.70;41.10;;;;;;5076120;28;20048;-38
2021/03/11 11:02:17;;;;;;;2.70;0.70;;;20.70;41.10;;;;;;5071663;28;20056;-41
2021/03/11 11:04:43;;;;;;;1.48;0.47;;;20.70;41.10;;;;;;5073556;28;20059;-45
2021/03/11 11:07:09;;;;;;;2.20;0.60;;;20.70;41.20;;;;;;5082783;28;20090;-40
2021/03/11 11:09:35;;;;;;;1.50;0.70;;;20.70;41.20;;;;;;5072921;28;20402;-50
2021/03/11 11:12:02;;;;;;;3.33;1.05;;;20.70;41.30;;;;;;5082150;28;20029;-41
2021/03/11 11:14:28;;;;;;;1.35;0.60;;;20.70;41.30;;;;;;5070078;28;20032;-39
2021/03/11 11:16:54;;;;;;;0.93;0.60;;;20.70;41.40;;;;;;5090164;28;20107;-40
2021/03/11 11:19:20;;;;;;;0.95;0.50;;;20.70;41.40;;;;;;5089409;28;20067;-51
2021/03/11 11:21:46;;;;;;;2.15;0.52;;;20.70;41.40;;;;;;5070257;28;20033;-46
2021/03/11 11:24:11;;;;;;;3.83;0.60;;;20.70;41.50;;;;;;5075910;28;20055;-44
2021/03/11 11:26:37;;;;;;;0.60;0.60;;;20.80;41.60;;;;;;5071509;28;20073;-48
2021/03/11 11:29:05;;;;;;;1.38;0.40;;;20.80;41.60;;;;;;5078648;28;20032;-40
2021/03/11 11:31:32;;;;;;;1.33;0.60;;;20.80;41.70;;;;;;5072046;28;20028;-40
2021/03/11 11:33:58;;;;;;;1.50;0.50;;;20.80;41.70;;;;;;5070783;28;20067;-39
2021/03/11 11:36:24;;;;;;;2.85;0.70;;;20.80;41.70;;;;;;5074749;28;20027;-43
2021/03/11 11:38:50;;;;;;;1.77;0.40;;;20.80;41.80;;;;;;5081819;28;20036;-45
2021/03/11 11:41:17;;;;;;;1.30;0.60;;;20.70;41.80;;;;;;5077121;28;20032;-40
2021/03/11 11:43:43;;;;;;;2.35;0.60;;;20.80;42.00;;;;;;5081409;28;20378;-41
2021/03/11 11:46:09;;;;;;;1.00;0.50;;;20.80;42.00;;;;;;5078757;28;20029;-39
2021/03/11 11:48:34;;;;;;;0.88;0.60;;;20.80;42.00;;;;;;5070675;28;20035;-44
2021/03/11 11:51:00;;;;;;;1.10;0.60;;;20.80;42.10;;;;;;5086835;28;20381;-42
2021/03/11 11:53:26;;;;;;;0.90;0.60;;;20.90;42.10;;;;;;5080177;28;20460;-42
2021/03/11 11:55:51;;;;;;;1.70;0.55;;;20.80;42.10;;;;;;5083129;28;20024;-38
2021/03/11 11:58:17;;;;;;;1.52;0.60;;;20.80;42.20;;;;;;5084347;28;20052;-45
2021/03/11 12:00:44;;;;;;;0.95;0.52;;;20.80;42.20;;;;;;5080029;28;20032;-44
2021/03/11 12:03:10;;;;;;;1.02;0.60;;;20.80;42.30;;;;;;5078778;28;20480;-39
2021/03/11 12:05:35;;;;;;;3.00;0.98;;;20.80;42.40;;;;;;5086437;28;20028;-45
2021/03/11 12:08:01;;;;;;;1.00;0.60;;;20.80;42.40;;;;;;5090089;28;20036;-40
2021/03/11 12:10:27;;;;;;;2.67;0.75;;;20.80;42.50;;;;;;5078064;28;20822;-39
2021/03/11 12:12:52;;;;;;;1.77;0.70;;;20.90;43.30;;;;;;5074136;28;20055;-42
2021/03/11 12:15:18;;;;;;;1.25;0.60;;;20.90;43.20;;;;;;5089708;28;20103;-39
2021/03/11 12:17:44;;;;;;;1.95;0.57;;;20.90;43.30;;;;;;5092964;28;20086;-42
2021/03/11 12:20:10;;;;;;;2.33;0.50;;;20.90;43.40;;;;;;5088413;28;20103;-40
2021/03/11 12:22:36;;;;;;;7.25;0.50;;;20.90;43.60;;;;;;5093381;28;20141;-46
2021/03/11 12:25:02;;;;;;;0.52;0.40;;;20.90;43.60;;;;;;5078221;28;20082;-41
2021/03/11 12:27:28;;;;;;;2.35;0.60;;;20.90;43.70;;;;;;5094250;28;20057;-42
2021/03/11 12:29:54;;;;;;;1.95;0.52;;;20.90;43.70;;;;;;5092712;28;20032;-49
2021/03/11 12:32:21;;;;;;;0.65;0.50;;;20.90;43.80;;;;;;5075436;28;20056;-38
2021/03/11 12:34:48;;;;;;;2.92;1.25;;;20.90;43.90;;;;;;5073722;28;20107;-40
2021/03/11 12:37:14;;;;;;;2.78;0.40;;;20.90;43.90;;;;;;5078167;28;20067;-40
2021/03/11 12:39:39;;;;;;;0.65;0.40;;;20.80;44.00;;;;;;5081336;28;20496;-48
2021/03/11 12:42:05;;;;;;;1.42;0.30;;;20.90;44.00;;;;;;5080539;28;20054;-40
2021/03/11 12:44:32;;;;;;;1.10;0.55;;;20.90;44.00;;;;;;5074850;28;20109;-39
2021/03/11 12:46:57;;;;;;;0.47;0.40;;;20.90;44.10;;;;;;5092739;28;20098;-41
2021/03/11 12:49:23;;;;;;;0.60;0.35;;;20.90;44.80;;;;;;5068141;28;20037;-42
2021/03/11 12:51:49;;;;;;;2.95;0.95;;;21.00;44.10;;;;;;5090708;28;20042;-39
2021/03/11 12:54:15;;;;;;;0.90;0.55;;;21.00;44.00;;;;;;5082828;28;20460;-46
2021/03/11 12:56:41;;;;;;;0.88;0.60;;;20.90;46.20;;;;;;5091364;28;20024;-48